Time;durP1;ratioP1;P1;durP2;ratioP2;P2;SDS_P1;SDS_P2;PMS_P1;PMS_P2;Temp;Humidity;BMP_temperature;BMP_pressure;BME280_temperature;BME280_humidity;BME280_pressure;Samples;Min_cycle;Max_cycle;Signal;HPM_P1;HPM_P2
2023/12/03 00:00:00;;;;;;;7.05;1.33;;;;;;;10.50;100.00;100669.16;5031694;28;20064;-72
2023/12/03 00:02:28;;;;;;;6.25;1.33;;;;;;;10.50;100.00;100678.66;5017037;28;20477;-72
2023/12/03 00:04:59;;;;;;;14.00;2.03;;;;;;;10.49;100.00;100682.94;5008837;28;20050;-71
2023/12/03 00:07:30;;;;;;;5.95;1.67;;;;;;;10.46;100.00;100690.59;5004423;28;20054;-73
2023/12/03 00:09:59;;;;;;;5.18;1.58;;;;;;;10.37;100.00;100692.94;5009232;28;20060;-74
2023/12/03 00:12:29;;;;;;;9.82;2.13;;;;;;;10.32;100.00;100705.72;5005771;28;20519;-75
2023/12/03 00:14:58;;;;;;;4.53;1.17;;;;;;;10.26;100.00;100702.91;5001965;28;20038;-76
2023/12/03 00:17:26;;;;;;;8.60;1.80;;;;;;;10.14;100.00;100711.19;5001726;28;20085;-76
2023/12/03 00:19:55;;;;;;;6.57;1.92;;;;;;;10.13;100.00;100709.44;5003450;28;20053;-75
2023/12/03 00:22:26;;;;;;;6.93;1.83;;;;;;;10.11;100.00;100697.31;5005050;28;20053;-74
2023/12/03 00:24:54;;;;;;;13.27;1.95;;;;;;;10.11;100.00;100700.75;5001074;28;20038;-74
2023/12/03 00:27:25;;;;;;;10.05;1.75;;;;;;;10.06;100.00;100686.81;5004347;28;20065;-75
2023/12/03 00:29:54;;;;;;;9.30;1.40;;;;;;;10.06;100.00;100698.03;5004040;28;20054;-77
2023/12/03 00:32:22;;;;;;;5.05;1.42;;;;;;;10.02;100.00;100695.31;5004320;28;20060;-74
2023/12/03 00:34:51;;;;;;;6.53;1.55;;;;;;;9.96;100.00;100695.97;5005388;28;20050;-77
2023/12/03 00:37:20;;;;;;;9.48;2.00;;;;;;;9.90;100.00;100684.59;4999342;28;20931;-76
2023/12/03 00:39:50;;;;;;;5.85;1.98;;;;;;;9.90;100.00;100695.81;5002369;28;20046;-76
2023/12/03 00:42:19;;;;;;;4.18;1.17;;;;;;;9.85;100.00;100695.66;5002497;28;20648;-75
2023/12/03 00:44:47;;;;;;;7.00;1.13;;;;;;;9.81;100.00;100691.22;5003134;28;20129;-76
2023/12/03 00:47:16;;;;;;;7.82;1.52;;;;;;;9.76;100.00;100684.16;5003270;28;20046;-74
2023/12/03 00:49:46;;;;;;;9.70;1.40;;;;;;;9.79;100.00;100692.00;5000151;28;20053;-75
2023/12/03 00:52:15;;;;;;;8.82;1.10;;;;;;;9.80;100.00;100705.00;5001927;28;20049;-74
2023/12/03 00:54:43;;;;;;;9.48;1.35;;;;;;;9.82;100.00;100690.38;4998289;28;20057;-75
2023/12/03 00:57:13;;;;;;;6.38;1.63;;;;;;;9.85;100.00;100695.66;5003492;28;20084;-75
2023/12/03 00:59:43;;;;;;;5.90;1.58;;;;;;;9.86;100.00;100684.47;5000287;28;20045;-76
2023/12/03 01:02:20;;;;;;;7.10;1.90;;;;;;;9.93;100.00;100682.09;5023673;28;20144;-75
2023/12/03 01:04:49;;;;;;;9.48;1.83;;;;;;;9.95;100.00;100685.63;5024487;28;20076;-76
2023/12/03 01:07:17;;;;;;;7.53;1.23;;;;;;;9.93;100.00;100679.50;5025208;28;20051;-75
2023/12/03 01:09:46;;;;;;;11.68;2.72;;;;;;;9.89;100.00;100678.53;5023526;28;20463;-75
2023/12/03 01:12:19;;;;;;;6.97;1.67;;;;;;;9.88;100.00;100673.34;5025144;28;20041;-75
2023/12/03 01:14:48;;;;;;;9.80;2.05;;;;;;;9.91;100.00;100676.00;5024749;28;20784;-77
2023/12/03 01:17:16;;;;;;;8.73;1.42;;;;;;;9.94;100.00;100665.75;5023725;28;20055;-74
2023/12/03 01:19:45;;;;;;;5.35;1.02;;;;;;;9.98;100.00;100667.59;5024966;28;20057;-74
2023/12/03 01:22:13;;;;;;;2.75;1.10;;;;;;;10.01;100.00;100662.50;5024087;28;20490;-74
2023/12/03 01:24:42;;;;;;;8.48;2.40;;;;;;;10.02;100.00;100656.53;5024902;28;20058;-74
2023/12/03 01:27:11;;;;;;;10.75;1.65;;;;;;;10.05;100.00;100661.78;5025085;28;20054;-75
2023/12/03 01:29:41;;;;;;;10.10;1.40;;;;;;;10.06;100.00;100660.97;5024007;28;20049;-75
2023/12/03 01:32:10;;;;;;;7.03;1.67;;;;;;;10.07;100.00;100662.72;5024524;28;20594;-75
2023/12/03 01:34:38;;;;;;;4.10;1.10;;;;;;;10.07;100.00;100661.00;5022988;28;20079;-73
2023/12/03 01:37:07;;;;;;;6.53;1.42;;;;;;;10.07;100.00;100667.88;5025251;28;20146;-73
2023/12/03 01:39:36;;;;;;;8.02;1.35;;;;;;;10.07;100.00;100679.09;5025765;28;20388;-76
2023/12/03 01:42:04;;;;;;;4.20;1.40;;;;;;;10.08;100.00;100674.81;5025420;28;20050;-73
2023/12/03 01:44:33;;;;;;;9.07;1.95;;;;;;;10.04;100.00;100663.50;5023263;28;20627;-75
2023/12/03 01:47:04;;;;;;;17.80;1.80;;;;;;;10.08;100.00;100672.22;5025856;28;20391;-75
2023/12/03 01:49:33;;;;;;;8.10;1.60;;;;;;;10.09;100.00;100665.34;5025666;28;20060;-76
2023/12/03 01:52:02;;;;;;;9.88;2.42;;;;;;;10.10;100.00;100657.66;5025102;28;20053;-75
2023/12/03 01:54:36;;;;;;;11.60;2.50;;;;;;;10.08;100.00;100654.13;5023967;28;20487;-75
2023/12/03 01:57:05;;;;;;;6.28;1.90;;;;;;;10.09;100.00;100645.53;5022901;28;20133;-74
2023/12/03 01:59:34;;;;;;;6.45;1.42;;;;;;;10.08;100.00;100633.47;5024939;28;20045;-75
2023/12/03 02:02:04;;;;;;;10.32;2.22;;;;;;;10.05;100.00;100628.19;5024168;28;20201;-74
2023/12/03 02:04:33;;;;;;;11.85;2.53;;;;;;;10.03;100.00;100622.06;5024518;28;20045;-75
2023/12/03 02:07:01;;;;;;;9.07;3.17;;;;;;;10.03;100.00;100632.41;5024197;28;20079;-76
2023/12/03 02:09:30;;;;;;;14.13;3.72;;;;;;;10.04;100.00;100631.59;5024527;28;20589;-75
2023/12/03 02:11:59;;;;;;;4.32;1.90;;;;;;;10.04;100.00;100632.47;5023014;28;20053;-75
2023/12/03 02:14:27;;;;;;;7.82;2.00;;;;;;;10.05;100.00;100628.19;5023848;28;20053;-73
2023/12/03 02:16:56;;;;;;;10.80;3.20;;;;;;;10.05;100.00;100618.69;5025422;28;20049;-74
2023/12/03 02:19:27;;;;;;;8.77;2.05;;;;;;;10.06;100.00;100610.13;5019151;28;20132;-75
2023/12/03 02:21:58;;;;;;;6.25;1.75;;;;;;;10.06;100.00;100604.09;5021694;28;20049;-74
2023/12/03 02:24:28;;;;;;;9.35;1.95;;;;;;;10.07;100.00;100605.84;5023269;28;20049;-73
2023/12/03 02:26:57;;;;;;;4.05;1.95;;;;;;;10.05;100.00;100603.19;5024810;28;20053;-72
2023/12/03 02:29:25;;;;;;;9.70;2.05;;;;;;;10.05;100.00;100602.31;5025536;28;20694;-73
2023/12/03 02:31:54;;;;;;;8.55;1.80;;;;;;;10.05;100.00;100597.16;5024054;28;20091;-75
2023/12/03 02:34:22;;;;;;;8.15;1.98;;;;;;;10.02;100.00;100602.25;5024890;28;20067;-73
2023/12/03 02:36:51;;;;;;;11.18;2.15;;;;;;;10.03;100.00;100591.06;5026640;28;20060;-73
2023/12/03 02:39:20;;;;;;;8.25;1.98;;;;;;;10.02;100.00;100597.06;5027253;28;20068;-74
2023/12/03 02:41:50;;;;;;;6.82;1.65;;;;;;;10.02;100.00;100600.53;5026266;28;20049;-75
2023/12/03 02:44:18;;;;;;;10.30;2.47;;;;;;;10.04;100.00;100598.00;5023513;28;20053;-76
2023/12/03 02:46:47;;;;;;;13.07;2.25;;;;;;;10.02;100.00;100592.78;5024741;28;20053;-74
2023/12/03 02:49:16;;;;;;;8.57;1.58;;;;;;;9.98;100.00;100587.47;5023578;28;20812;-74
2023/12/03 02:51:44;;;;;;;8.05;1.83;;;;;;;9.95;100.00;100588.25;5025410;28;20068;-74
2023/12/03 02:54:22;;;;;;;8.40;2.20;;;;;;;9.92;100.00;100589.88;5026209;28;20049;-74
2023/12/03 02:56:52;;;;;;;7.03;1.50;;;;;;;9.88;100.00;100590.63;5025390;28;20057;-74
2023/12/03 02:59:21;;;;;;;7.55;1.83;;;;;;;9.83;100.00;100582.75;5021990;28;20060;-74
2023/12/03 03:02:03;;;;;;;8.18;1.65;;;;;;;9.80;100.00;100590.38;5021780;28;20061;-76
2023/12/03 03:04:34;;;;;;;3.78;2.15;;;;;;;9.75;100.00;100581.63;5022537;28;20084;-75
2023/12/03 03:07:03;;;;;;;8.85;2.35;;;;;;;9.71;100.00;100591.00;5021468;28;20053;-74
2023/12/03 03:09:32;;;;;;;7.28;2.15;;;;;;;9.68;100.00;100585.72;5020898;28;20049;-76
2023/12/03 03:12:02;;;;;;;5.78;2.20;;;;;;;9.63;100.00;100575.25;5022046;28;20053;-75
2023/12/03 03:14:33;;;;;;;7.00;2.10;;;;;;;9.71;100.00;100596.19;5021469;28;20053;-74
2023/12/03 03:17:01;;;;;;;10.85;2.47;;;;;;;9.74;100.00;100598.84;5021090;28;20374;-76
2023/12/03 03:19:30;;;;;;;4.78;2.40;;;;;;;9.73;100.00;100594.50;5023270;28;20053;-76
2023/12/03 03:21:59;;;;;;;6.97;1.50;;;;;;;9.72;100.00;100595.34;5021911;28;20065;-75
2023/12/03 03:24:27;;;;;;;6.82;2.60;;;;;;;9.75;100.00;100600.59;5022397;28;20419;-74
2023/12/03 03:26:56;;;;;;;7.35;1.77;;;;;;;9.77;100.00;100614.44;5021509;28;20499;-75
2023/12/03 03:29:26;;;;;;;8.00;1.70;;;;;;;9.81;100.00;100621.44;5023922;28;20050;-75
2023/12/03 03:31:55;;;;;;;9.05;2.80;;;;;;;9.82;100.00;100610.28;5023945;28;20053;-75
2023/12/03 03:34:24;;;;;;;12.40;2.50;;;;;;;9.85;100.00;100612.97;5022842;28;20049;-76
2023/12/03 03:36:52;;;;;;;12.70;3.42;;;;;;;9.84;100.00;100613.78;5021294;28;20518;-76
2023/12/03 03:39:21;;;;;;;7.18;2.35;;;;;;;9.81;100.00;100608.53;5022981;28;20045;-76
2023/12/03 03:41:49;;;;;;;13.68;2.80;;;;;;;9.78;100.00;100608.44;5022590;28;20041;-77
2023/12/03 03:44:18;;;;;;;11.40;2.75;;;;;;;9.80;100.00;100611.06;5022529;28;20088;-77
2023/12/03 03:46:48;;;;;;;8.35;2.30;;;;;;;9.81;100.00;100613.69;5023092;28;20050;-79
2023/12/03 03:49:17;;;;;;;8.50;2.35;;;;;;;9.83;100.00;100617.22;5025687;28;20098;-79
2023/12/03 03:51:46;;;;;;;10.98;2.28;;;;;;;9.85;100.00;100610.38;5025008;28;20052;-81
2023/12/03 03:54:14;;;;;;;10.15;3.00;;;;;;;9.88;100.00;100613.91;5026060;28;20096;-77
2023/12/03 03:56:47;;;;;;;9.23;2.20;;;;;;;9.90;100.00;100615.69;5024106;28;20207;-78
2023/12/03 03:59:16;;;;;;;10.27;2.45;;;;;;;9.89;100.00;100616.50;5017495;28;20042;-77
2023/12/03 04:01:45;;;;;;;10.05;2.40;;;;;;;9.91;100.00;100630.34;5022199;28;20050;-76
2023/12/03 04:04:15;;;;;;;7.82;2.20;;;;;;;9.88;100.00;100629.41;5022586;28;20718;-78
2023/12/03 04:06:46;;;;;;;9.10;3.85;;;;;;;9.88;100.00;100644.91;5021985;28;20554;-77
2023/12/03 04:09:15;;;;;;;10.88;3.70;;;;;;;9.84;100.00;100642.22;5022144;28;20569;-77
2023/12/03 04:11:45;;;;;;;11.38;2.58;;;;;;;9.85;100.00;100648.28;5022285;28;20779;-77
2023/12/03 04:14:17;;;;;;;8.85;1.90;;;;;;;9.86;100.00;100658.63;5020171;28;20053;-76
2023/12/03 04:16:46;;;;;;;7.97;2.40;;;;;;;9.89;100.00;100667.31;5022172;28;20087;-77
2023/12/03 04:19:16;;;;;;;11.43;1.85;;;;;;;9.91;100.00;100666.53;5021720;28;20053;-76
2023/12/03 04:21:45;;;;;;;6.53;2.00;;;;;;;9.91;100.00;100666.53;5021925;28;20049;-77
2023/12/03 04:24:13;;;;;;;6.47;2.28;;;;;;;9.88;100.00;100657.81;5023097;28;20452;-77
2023/12/03 04:26:44;;;;;;;8.13;2.30;;;;;;;9.95;100.00;100662.34;5024149;28;20053;-76
2023/12/03 04:29:13;;;;;;;8.30;2.10;;;;;;;9.95;100.00;100667.53;5026906;28;20045;-76
2023/12/03 04:31:42;;;;;;;12.32;2.72;;;;;;;9.96;100.00;100677.00;5027001;28;20055;-75
2023/12/03 04:34:10;;;;;;;6.32;2.13;;;;;;;9.96;100.00;100674.44;5020764;28;20064;-75
2023/12/03 04:36:44;;;;;;;10.82;2.28;;;;;;;9.96;100.00;100674.44;5022666;28;20050;-74
2023/12/03 04:39:26;;;;;;;7.65;2.08;;;;;;;9.93;100.00;100667.47;5027023;28;20054;-75
2023/12/03 04:42:15;;;;;;;6.15;2.03;;;;;;;9.87;100.00;100664.69;5025429;28;20053;-76
2023/12/03 04:44:43;;;;;;;8.75;2.20;;;;;;;9.80;100.00;100673.97;5028251;28;20088;-76
2023/12/03 04:47:15;;;;;;;6.65;1.92;;;;;;;9.70;100.00;100674.50;5030574;28;20048;-77
2023/12/03 04:49:44;;;;;;;6.78;2.20;;;;;;;9.68;100.00;100673.56;5030447;28;20064;-77
2023/12/03 04:52:16;;;;;;;7.40;2.60;;;;;;;9.68;100.00;100670.13;5031444;28;20049;-75
2023/12/03 04:54:44;;;;;;;7.22;1.63;;;;;;;9.66;100.00;100670.06;5029156;28;20072;-76
2023/12/03 04:57:13;;;;;;;6.95;1.70;;;;;;;9.67;100.00;100669.25;5028896;28;20053;-76
2023/12/03 04:59:42;;;;;;;7.00;1.98;;;;;;;9.68;100.00;100663.25;5024631;28;20053;-76
2023/12/03 05:02:11;;;;;;;4.88;1.42;;;;;;;9.70;100.00;100660.72;5022534;28;20068;-76
2023/12/03 05:04:40;;;;;;;6.72;2.35;;;;;;;9.70;100.00;100659.00;5010522;28;20049;-76
2023/12/03 05:07:09;;;;;;;8.38;2.28;;;;;;;9.71;100.00;100663.34;5011620;28;20581;-75
2023/12/03 05:09:43;;;;;;;4.57;1.40;;;;;;;9.73;100.00;100656.50;5012201;28;20050;-75
2023/12/03 05:12:11;;;;;;;9.57;2.35;;;;;;;9.76;100.00;100663.50;5010302;28;20049;-74
2023/12/03 05:14:40;;;;;;;4.75;1.75;;;;;;;9.74;100.00;100650.53;5012795;28;20886;-75
2023/12/03 05:17:12;;;;;;;5.72;2.10;;;;;;;9.71;100.00;100645.28;5015043;28;20053;-76
2023/12/03 05:19:43;;;;;;;9.33;1.83;;;;;;;9.79;100.00;100654.13;5015598;28;20050;-75
2023/12/03 05:22:12;;;;;;;4.97;1.58;;;;;;;9.80;100.00;100650.72;5009533;28;20046;-74
2023/12/03 05:24:43;;;;;;;2.53;1.35;;;;;;;9.80;100.00;100647.22;5008782;28;20507;-75
2023/12/03 05:27:12;;;;;;;5.30;1.52;;;;;;;9.77;100.00;100632.50;5005831;28;20051;-74
2023/12/03 05:29:44;;;;;;;5.10;1.77;;;;;;;9.76;100.00;100637.66;5007793;28;20046;-76
2023/12/03 05:32:13;;;;;;;3.53;1.48;;;;;;;9.75;100.00;100639.34;5009404;28;20050;-73
2023/12/03 05:34:46;;;;;;;4.05;2.35;;;;;;;9.73;100.00;100635.84;5008211;28;20053;-75
2023/12/03 05:37:14;;;;;;;;;;;;;;;9.77;100.00;100641.97;5007953;28;20046;-75
2023/12/03 05:39:45;;;;;;;5.68;1.52;;;;;;;9.76;100.00;100630.78;5007074;28;19925;-74
2023/12/03 05:42:15;;;;;;;6.05;1.25;;;;;;;9.77;100.00;100627.34;5011459;28;20054;-76
2023/12/03 05:44:44;;;;;;;6.93;1.38;;;;;;;9.78;100.00;100621.38;5010906;28;20056;-76
2023/12/03 05:47:13;;;;;;;4.97;1.42;;;;;;;9.82;100.00;100611.97;5012702;28;20554;-75
2023/12/03 05:49:42;;;;;;;6.28;1.38;;;;;;;9.85;100.00;100619.84;5011963;28;20585;-74
2023/12/03 05:52:10;;;;;;;5.53;1.58;;;;;;;9.86;100.00;100621.59;5009596;28;20050;-75
2023/12/03 05:54:39;;;;;;;4.07;1.58;;;;;;;9.88;100.00;100625.09;5008849;28;20589;-77
2023/12/03 05:57:10;;;;;;;5.55;1.58;;;;;;;9.91;100.00;100613.97;5009451;28;20503;-76
2023/12/03 05:59:39;;;;;;;2.45;1.23;;;;;;;9.91;100.00;100612.25;5007327;28;20131;-76
2023/12/03 06:02:07;;;;;;;3.90;1.20;;;;;;;9.92;100.00;100615.72;5019334;28;20057;-76
2023/12/03 06:04:36;;;;;;;4.72;1.63;;;;;;;9.92;100.00;100601.09;5028148;28;20449;-75
2023/12/03 06:07:06;;;;;;;4.50;2.30;;;;;;;9.91;100.00;100604.50;5031494;28;20053;-74
2023/12/03 06:09:35;;;;;;;4.78;1.35;;;;;;;9.89;100.00;100610.47;5035354;28;20063;-77
2023/12/03 06:12:05;;;;;;;6.65;1.73;;;;;;;9.89;100.00;100594.97;5038663;28;20144;-75
2023/12/03 06:14:39;;;;;;;4.85;1.17;;;;;;;9.90;100.00;100601.91;5035923;28;20056;-76
2023/12/03 06:17:08;;;;;;;5.75;1.45;;;;;;;9.91;100.00;100599.34;5031814;28;20046;-77
2023/12/03 06:19:39;;;;;;;6.07;1.02;;;;;;;9.87;100.00;100581.97;5027122;28;20139;-75
2023/12/03 06:22:08;;;;;;;6.55;1.88;;;;;;;9.91;100.00;100583.81;5020809;28;20092;-76
2023/12/03 06:24:36;;;;;;;3.85;0.98;;;;;;;9.89;100.00;100592.38;5022874;28;20057;-77
2023/12/03 06:27:05;;;;;;;1.95;1.00;;;;;;;9.88;100.00;100588.91;5020946;28;20053;-75
2023/12/03 06:29:34;;;;;;;3.35;1.40;;;;;;;9.88;100.00;100595.81;5022362;28;20045;-77
2023/12/03 06:32:05;;;;;;;2.72;0.98;;;;;;;9.88;100.00;100593.22;5019525;28;20584;-76
2023/12/03 06:34:33;;;;;;;3.03;0.93;;;;;;;9.91;100.00;100594.16;5016135;28;20500;-77
2023/12/03 06:37:04;;;;;;;3.92;1.33;;;;;;;9.91;100.00;100588.13;5014347;28;20061;-75
2023/12/03 06:39:33;;;;;;;3.97;0.95;;;;;;;9.90;100.00;100587.25;5020219;28;20057;-75
2023/12/03 06:42:03;;;;;;;4.88;0.82;;;;;;;9.90;100.00;100586.38;5023083;28;20060;-76
2023/12/03 06:44:34;;;;;;;4.30;0.93;;;;;;;9.88;100.00;100593.22;5024498;28;20051;-74
2023/12/03 06:47:06;;;;;;;3.50;0.55;;;;;;;9.88;100.00;100582.88;5017129;28;20049;-77
2023/12/03 06:49:35;;;;;;;2.63;0.97;;;;;;;9.91;100.00;100588.13;5024239;28;20065;-77
2023/12/03 06:52:04;;;;;;;1.65;0.60;;;;;;;9.90;100.00;100588.97;5020143;28;20299;-75
2023/12/03 06:54:33;;;;;;;2.88;0.82;;;;;;;9.89;100.00;100584.63;5020565;28;20045;-75
2023/12/03 06:57:02;;;;;;;2.85;0.60;;;;;;;9.90;100.00;100573.47;5022620;28;20059;-76
2023/12/03 06:59:34;;;;;;;5.15;0.85;;;;;;;9.90;100.00;100576.06;5023534;28;20052;-76
2023/12/03 07:02:04;;;;;;;1.58;0.70;;;;;;;9.90;100.00;100565.72;5020730;28;20057;-75
2023/12/03 07:04:34;;;;;;;2.80;0.80;;;;;;;9.92;100.00;100564.03;5019876;28;20058;-75
2023/12/03 07:07:02;;;;;;;2.90;0.80;;;;;;;9.93;100.00;100568.38;5022845;28;20056;-76
2023/12/03 07:09:32;;;;;;;6.32;1.00;;;;;;;9.92;100.00;100569.19;5024162;28;20076;-76
2023/12/03 07:12:00;;;;;;;2.60;0.75;;;;;;;9.92;100.00;100579.53;5017570;28;20326;-76
2023/12/03 07:14:30;;;;;;;7.63;2.17;;;;;;;9.92;100.00;100579.53;5022582;28;20073;-76
2023/12/03 07:17:01;;;;;;;5.53;2.58;;;;;;;9.92;100.00;100570.09;5024343;28;20083;-76
2023/12/03 07:19:34;;;;;;;3.05;1.30;;;;;;;9.96;100.00;100574.50;5023480;28;20123;-74
2023/12/03 07:22:02;;;;;;;2.63;1.05;;;;;;;9.99;100.00;100568.56;5021124;28;20108;-75
2023/12/03 07:24:35;;;;;;;3.58;1.42;;;;;;;9.99;100.00;100572.03;5020353;28;20055;-74
2023/12/03 07:27:04;;;;;;;4.72;1.65;;;;;;;10.01;100.00;100565.19;5022324;28;20052;-76
2023/12/03 07:29:33;;;;;;;5.57;1.30;;;;;;;10.02;100.00;100566.06;5020422;28;20308;-73
2023/12/03 07:32:03;;;;;;;4.57;1.35;;;;;;;10.01;100.00;100559.13;5020170;28;20061;-76
2023/12/03 07:34:34;;;;;;;3.22;1.10;;;;;;;9.99;100.00;100548.75;5022594;28;20053;-75
2023/12/03 07:37:02;;;;;;;2.47;1.02;;;;;;;9.97;100.00;100562.47;5019706;28;20049;-75
2023/12/03 07:39:34;;;;;;;3.88;1.05;;;;;;;9.92;100.00;100558.84;5023604;28;20055;-75
2023/12/03 07:42:03;;;;;;;2.13;1.20;;;;;;;9.90;100.00;100558.84;5027048;28;20046;-75
2023/12/03 07:44:32;;;;;;;3.42;1.70;;;;;;;9.90;100.00;100556.25;5028984;28;20053;-73
2023/12/03 07:47:01;;;;;;;5.15;1.10;;;;;;;9.92;100.00;100554.59;5028253;28;20041;-75
2023/12/03 07:49:30;;;;;;;3.40;1.35;;;;;;;9.94;100.00;100546.84;5030186;28;20442;-77
2023/12/03 07:52:01;;;;;;;6.65;1.75;;;;;;;9.93;100.00;100545.13;5030874;28;20052;-75
2023/12/03 07:54:30;;;;;;;2.25;1.02;;;;;;;9.84;100.00;100535.38;5027680;28;20201;-74
2023/12/03 07:56:59;;;;;;;5.60;1.50;;;;;;;9.88;100.00;100550.16;5025754;28;20046;-75
2023/12/03 07:59:29;;;;;;;5.25;1.75;;;;;;;9.88;100.00;100546.69;5025723;28;20061;-74
2023/12/03 08:01:58;;;;;;;6.03;1.50;;;;;;;9.86;100.00;100532.00;5028948;28;20135;-75
2023/12/03 08:04:27;;;;;;;4.55;1.48;;;;;;;9.85;100.00;100540.59;5029984;28;20055;-75
2023/12/03 08:06:56;;;;;;;6.43;1.45;;;;;;;9.88;100.00;100532.06;5029777;28;20046;-73
2023/12/03 08:09:28;;;;;;;3.80;1.35;;;;;;;9.90;100.00;100533.00;5030216;28;20072;-74
2023/12/03 08:11:59;;;;;;;3.17;0.90;;;;;;;9.92;100.00;100525.25;5029604;28;20048;-74
2023/12/03 08:14:28;;;;;;;3.78;0.95;;;;;;;9.93;100.00;100521.84;5027563;28;20048;-75
2023/12/03 08:16:57;;;;;;;4.38;1.20;;;;;;;9.92;100.00;100523.56;5030569;28;20239;-75
2023/12/03 08:19:25;;;;;;;1.75;1.00;;;;;;;9.95;100.00;100518.47;5028532;28;20045;-75
2023/12/03 08:21:57;;;;;;;5.25;1.33;;;;;;;9.94;100.00;100516.75;5027860;28;20045;-75
2023/12/03 08:24:27;;;;;;;3.65;1.05;;;;;;;9.93;100.00;100522.72;5029925;28;20060;-73
2023/12/03 08:26:56;;;;;;;3.45;1.42;;;;;;;9.92;100.00;100513.22;5026932;28;20049;-75
2023/12/03 08:29:25;;;;;;;3.88;1.45;;;;;;;9.92;100.00;100517.50;5030135;28;20093;-74
2023/12/03 08:31:53;;;;;;;5.13;1.50;;;;;;;9.86;100.00;100513.91;5023265;28;20045;-74
2023/12/03 08:34:22;;;;;;;1.40;0.70;;;;;;;9.81;100.00;100512.91;5026219;28;20046;-74
2023/12/03 08:36:50;;;;;;;3.83;1.15;;;;;;;9.82;100.00;100512.06;5029017;28;21187;-76
2023/12/03 08:39:19;;;;;;;2.45;1.25;;;;;;;9.82;100.00;100501.75;5031147;28;20403;-75
2023/12/03 08:41:49;;;;;;;2.60;0.93;;;;;;;9.78;100.00;100499.91;5027573;28;20132;-76
2023/12/03 08:44:18;;;;;;;2.70;1.00;;;;;;;9.79;100.00;100501.66;5028406;28;20045;-75
2023/12/03 08:46:47;;;;;;;3.20;1.30;;;;;;;9.80;100.00;100503.44;5026190;28;20623;-75
2023/12/03 08:49:16;;;;;;;5.13;1.20;;;;;;;9.79;100.00;100501.66;5024916;28;20620;-75
2023/12/03 08:51:44;;;;;;;3.20;1.35;;;;;;;9.76;100.00;100493.84;5030188;28;20450;-77
2023/12/03 08:54:13;;;;;;;3.97;1.15;;;;;;;9.79;100.00;100501.66;5027195;28;20581;-74
2023/12/03 08:56:43;;;;;;;2.78;1.35;;;;;;;9.83;100.00;100497.47;5028427;28;20049;-76
2023/12/03 08:59:14;;;;;;;4.15;1.20;;;;;;;9.86;100.00;100498.41;5028457;28;20045;-76
2023/12/03 09:01:42;;;;;;;3.72;1.20;;;;;;;9.89;100.00;100486.41;5025206;28;20142;-76
2023/12/03 09:04:14;;;;;;;3.70;1.00;;;;;;;9.90;100.00;100483.88;5025440;28;20054;-75
2023/12/03 09:06:44;;;;;;;5.07;1.10;;;;;;;9.88;100.00;100484.69;5029362;28;20085;-74
2023/12/03 09:09:12;;;;;;;3.25;1.15;;;;;;;9.83;100.00;100481.97;5025993;28;20054;-75
2023/12/03 09:11:44;;;;;;;3.65;1.27;;;;;;;9.78;100.00;100476.66;5027423;28;20046;-75
2023/12/03 09:14:14;;;;;;;3.55;1.00;;;;;;;9.75;100.00;100480.88;5025382;28;20061;-76
2023/12/03 09:16:43;;;;;;;3.95;1.40;;;;;;;9.73;100.00;100480.81;5027559;28;20054;-76
2023/12/03 09:19:11;;;;;;;2.67;1.20;;;;;;;9.70;100.00;100472.97;5022872;28;20053;-77
2023/12/03 09:21:40;;;;;;;2.70;1.65;;;;;;;9.69;100.00;100473.81;5024995;28;20263;-75
2023/12/03 09:24:09;;;;;;;2.20;0.95;;;;;;;9.69;100.00;100470.34;5025427;28;20061;-77
2023/12/03 09:26:37;;;;;;;5.45;1.65;;;;;;;9.72;100.00;100462.69;5026664;28;20276;-76
2023/12/03 09:29:06;;;;;;;3.67;1.10;;;;;;;9.71;100.00;100469.59;5027728;28;20049;-77
2023/12/03 09:31:36;;;;;;;3.95;1.30;;;;;;;9.70;100.00;100467.81;5027595;28;20049;-75
2023/12/03 09:34:05;;;;;;;2.13;1.50;;;;;;;9.69;100.00;100463.50;5026232;28;20057;-76
2023/12/03 09:36:34;;;;;;;5.40;1.30;;;;;;;9.70;100.00;100460.06;5026803;28;20147;-75
2023/12/03 09:39:04;;;;;;;3.97;1.58;;;;;;;9.70;100.00;100465.22;5030138;28;20368;-77
2023/12/03 09:41:34;;;;;;;2.75;1.45;;;;;;;9.72;100.00;100465.28;5025694;28;20069;-78
2023/12/03 09:44:10;;;;;;;4.45;1.40;;;;;;;9.72;100.00;100463.56;5028373;28;20494;-76
2023/12/03 09:46:40;;;;;;;3.47;1.25;;;;;;;9.72;100.00;100457.53;5029061;28;20111;-79
2023/12/03 09:49:11;;;;;;;4.13;1.00;;;;;;;9.71;100.00;100451.50;5026950;28;20495;-77
2023/12/03 09:51:42;;;;;;;4.30;1.15;;;;;;;9.71;100.00;100451.50;5027042;28;20107;-79
2023/12/03 09:54:11;;;;;;;2.88;1.27;;;;;;;9.75;100.00;100452.44;5025583;28;20045;-78
2023/12/03 09:56:42;;;;;;;4.78;1.05;;;;;;;9.74;100.00;100450.69;5021836;28;20049;-79
2023/12/03 09:59:12;;;;;;;2.40;1.08;;;;;;;9.71;100.00;100441.16;5025644;28;20072;-79
2023/12/03 10:01:46;;;;;;;6.53;1.17;;;;;;;9.73;100.00;100448.94;5023331;28;20053;-79
2023/12/03 10:04:15;;;;;;;2.90;1.05;;;;;;;9.73;100.00;100447.22;5027857;28;20042;-79
2023/12/03 10:06:47;;;;;;;3.50;1.15;;;;;;;9.73;100.00;100442.06;5023500;28;20065;-78
2023/12/03 10:09:16;;;;;;;1.55;0.80;;;;;;;9.73;100.00;100436.88;5027303;28;20107;-78
2023/12/03 10:11:55;;;;;;;2.83;0.75;;;;;;;9.71;100.00;100438.56;5028328;28;20046;-80
2023/12/03 10:14:23;;;;;;;2.78;0.63;;;;;;;9.68;100.00;100441.06;5025225;28;20049;-79
2023/12/03 10:16:57;;;;;;;2.08;0.80;;;;;;;9.66;100.00;100440.13;5029997;28;20037;-79
2023/12/03 10:19:30;;;;;;;3.13;0.77;;;;;;;9.61;100.00;100428.81;5032785;28;20045;-79
2023/12/03 10:22:00;;;;;;;1.83;0.98;;;;;;;9.60;100.00;100433.09;5042263;28;20076;-80
2023/12/03 10:24:32;;;;;;;3.25;1.13;;;;;;;9.60;100.00;100432.22;5037936;28;20718;-80
2023/12/03 10:27:04;;;;;;;3.75;0.90;;;;;;;9.61;100.00;100428.81;5025042;28;20045;-80
2023/12/03 10:29:34;;;;;;;1.60;0.60;;;;;;;9.62;100.00;100430.53;5026689;28;20057;-79
2023/12/03 10:32:05;;;;;;;1.45;0.60;;;;;;;9.60;100.00;100425.34;5022663;28;20060;-79
2023/12/03 10:34:34;;;;;;;1.20;0.70;;;;;;;9.61;100.00;100432.25;5028411;28;20045;-80
2023/12/03 10:37:07;;;;;;;2.92;0.75;;;;;;;9.59;100.00;100418.41;5027789;28;20119;-79
2023/12/03 10:39:39;;;;;;;0.60;0.45;;;;;;;9.60;100.00;100414.16;5027780;28;20092;-79
2023/12/03 10:42:15;;;;;;;3.30;1.33;;;;;;;9.60;100.00;100420.19;5023937;28;20145;-82
2023/12/03 10:44:46;;;;;;;1.50;0.77;;;;;;;9.59;100.00;100426.16;5025741;28;20050;-79
2023/12/03 10:47:20;;;;;;;1.52;0.85;;;;;;;9.60;100.00;100420.19;5025918;28;20512;-79
2023/12/03 10:49:51;;;;;;;0.82;0.47;;;;;;;9.56;100.00;100414.91;5025240;28;20140;-80
2023/12/03 10:52:21;;;;;;;0.88;0.55;;;;;;;9.55;100.00;100408.84;5021577;28;20368;-81
2023/12/03 10:54:50;;;;;;;3.28;0.80;;;;;;;9.53;100.00;100407.03;5027266;28;20269;-79
2023/12/03 10:57:20;;;;;;;1.48;0.57;;;;;;;9.55;100.00;100414.03;5027728;28;20665;-81
2023/12/03 10:59:55;;;;;;;1.67;0.82;;;;;;;9.55;100.00;100408.84;5023147;28;20060;-81
2023/12/03 11:02:32;;;;;;;2.30;0.90;;;;;;;9.55;100.00;100405.38;5019997;28;20049;-80
2023/12/03 11:05:05;;;;;;;2.58;0.77;;;;;;;9.52;100.00;100397.56;5008087;28;20595;-79
2023/12/03 11:07:35;;;;;;;1.73;0.80;;;;;;;9.53;100.00;100388.97;5007334;28;20046;-78
2023/12/03 11:10:05;;;;;;;3.90;0.65;;;;;;;9.48;100.00;100378.50;5003880;28;20057;-79
2023/12/03 11:12:34;;;;;;;1.92;0.70;;;;;;;9.37;100.00;100380.81;5008032;28;20052;-79
2023/12/03 11:15:04;;;;;;;1.77;0.50;;;;;;;9.28;100.00;100372.78;5005649;28;20054;-79
2023/12/03 11:17:41;;;;;;;1.48;0.73;;;;;;;9.24;100.00;100376.13;5006901;28;20048;-81
2023/12/03 11:20:14;;;;;;;1.27;0.60;;;;;;;9.24;100.00;100376.13;5004538;28;20398;-80
2023/12/03 11:22:57;;;;;;;0.75;0.50;;;;;;;9.25;100.00;100374.41;5006040;28;20046;-81
2023/12/03 11:25:32;;;;;;;1.10;0.50;;;;;;;9.29;100.00;100374.53;5003219;28;20057;-79
2023/12/03 11:28:02;;;;;;;0.77;0.60;;;;;;;9.34;100.00;100372.09;5007252;28;20050;-78
2023/12/03 11:30:42;;;;;;;0.70;0.60;;;;;;;9.36;100.00;100376.44;5011369;28;20050;-78
2023/12/03 11:33:15;;;;;;;1.40;0.40;;;;;;;9.35;100.00;100364.38;5012923;28;20210;-78
2023/12/03 11:35:48;;;;;;;5.22;0.82;;;;;;;9.32;100.00;100366.91;5006112;28;20153;-76